Terminal Aerodrome Forecast
Issued by NWS

Home | Current Version | Previous Version | Text Only | Print | Product List | Glossary Off
Versions: 1 2 3 4 5 6 7 8 9 10 11 12 13 14 15

363
FTUS43 KABR 031126
TAFATY
TAF
KATY 031126Z 0312/0412 VRB05KT P6SM SCT250
     FM031800 33017G25KT P6SM SCT250
     FM040200 35007KT P6SM SKC=

USA.gov is the U.S. government's official web portal to all federal, state and local government web resources and services.